createdAt,value
2019-04-27T00:02:08.881Z,16.25
2019-04-27T00:04:40.924Z,15.78
2019-04-27T00:07:24.876Z,18.37
2019-04-27T00:09:56.914Z,15.48
2019-04-27T00:12:27.653Z,14.60
2019-04-27T00:14:58.326Z,15.28
2019-04-27T00:17:43.431Z,15.43
2019-04-27T00:20:04.415Z,16.60
2019-04-27T00:22:40.233Z,16.15
2019-04-27T00:25:10.894Z,15.13
2019-04-27T00:27:41.340Z,16.42
2019-04-27T00:30:13.866Z,16.87
2019-04-27T00:32:44.296Z,16.62
2019-04-27T00:35:16.345Z,16.25
2019-04-27T00:37:52.948Z,16.57
2019-04-27T00:40:25.252Z,16.55
2019-04-27T00:42:55.629Z,16.77
2019-04-27T00:45:26.108Z,17.52
2019-04-27T00:47:59.669Z,18.02
2019-04-27T00:50:28.643Z,18.12
2019-04-27T00:52:59.031Z,18.52
2019-04-27T00:55:29.424Z,19.60
2019-04-27T00:58:10.396Z,18.73
2019-04-27T01:00:51.241Z,18.50
2019-04-27T01:03:26.347Z,19.87
2019-04-27T01:05:56.745Z,18.45
2019-04-27T01:08:27.109Z,20.65
2019-04-27T01:10:57.501Z,18.65
2019-04-27T01:13:29.339Z,18.48
2019-04-27T01:15:59.946Z,18.12
2019-04-27T01:18:30.364Z,18.30
2019-04-27T01:21:00.772Z,17.25
2019-04-27T01:23:31.147Z,17.82
2019-04-27T01:26:03.218Z,18.02
2019-04-27T01:28:39.188Z,18.50
2019-04-27T01:31:11.205Z,17.90
2019-04-27T01:33:41.634Z,18.15
2019-04-27T01:36:12.033Z,18.25
2019-04-27T01:38:42.481Z,17.48
2019-04-27T01:41:12.869Z,17.23
2019-04-27T01:43:43.235Z,16.32
2019-04-27T01:46:13.637Z,15.28
2019-04-27T01:48:44.005Z,15.83
2019-04-27T01:51:14.572Z,14.73
2019-04-27T01:53:44.940Z,15.28
2019-04-27T01:56:15.334Z,14.68
2019-04-27T01:58:45.708Z,14.93
2019-04-27T02:01:22.394Z,14.23
2019-04-27T02:03:54.477Z,14.15
2019-04-27T02:06:26.518Z,14.20
2019-04-27T02:08:56.896Z,15.35
2019-04-27T02:11:28.785Z,13.85
2019-04-27T02:13:59.514Z,15.08
2019-04-27T02:16:30.654Z,14.20
2019-04-27T02:19:01.065Z,15.05
2019-04-27T02:21:31.464Z,13.72
2019-04-27T02:24:01.908Z,14.63
2019-04-27T02:26:32.314Z,16.12
2019-04-27T02:29:10.222Z,15.05
2019-04-27T02:31:42.422Z,16.07
2019-04-27T02:34:14.426Z,16.32
2019-04-27T02:36:44.826Z,15.83
2019-04-27T02:39:15.193Z,15.48
2019-04-27T02:41:45.600Z,16.50
2019-04-27T02:44:19.830Z,14.83
2019-04-27T02:46:50.302Z,16.27
2019-04-27T02:49:20.846Z,15.45
2019-04-27T02:52:09.467Z,15.38
2019-04-27T02:54:40.990Z,16.02
2019-04-27T02:57:11.385Z,14.68
2019-04-27T02:59:41.769Z,16.48
2019-04-27T03:02:13.795Z,15.60
2019-04-27T03:04:44.165Z,15.55
2019-04-27T03:07:14.565Z,15.05
2019-04-27T03:09:44.926Z,16.37
2019-04-27T03:12:16.974Z,16.35
2019-04-27T03:14:50.610Z,15.93
2019-04-27T03:17:25.725Z,16.52
2019-04-27T03:19:59.762Z,16.40
2019-04-27T03:22:39.875Z,17.27
2019-04-27T03:25:15.144Z,16.87
2019-04-27T03:27:51.425Z,16.37
2019-04-27T03:30:23.468Z,17.87
2019-04-27T03:32:56.738Z,17.87
2019-04-27T03:35:26.289Z,18.07
2019-04-27T03:38:00.349Z,18.10
2019-04-27T03:40:30.744Z,18.70
2019-04-27T03:43:03.132Z,18.25
2019-04-27T03:45:33.503Z,17.90
2019-04-27T03:48:04.614Z,18.90
2019-04-27T03:50:36.637Z,18.70
2019-04-27T03:53:14.707Z,17.35
2019-04-27T03:55:46.711Z,18.32
2019-04-27T03:58:21.683Z,18.67
2019-04-27T04:00:53.384Z,18.42
2019-04-27T04:03:23.846Z,19.62
2019-04-27T04:05:54.281Z,19.87
2019-04-27T04:08:24.745Z,19.45
2019-04-27T04:11:10.298Z,19.35
2019-04-27T04:13:45.517Z,20.10
2019-04-27T04:16:23.440Z,20.57
2019-04-27T04:19:09.773Z,21.00
2019-04-27T04:21:40.281Z,21.80
2019-04-27T04:24:12.108Z,21.02
2019-04-27T04:26:42.845Z,22.20
2019-04-27T04:29:13.233Z,21.97
2019-04-27T04:31:43.611Z,21.95
2019-04-27T04:34:14.001Z,23.18
2019-04-27T04:36:44.385Z,24.82
2019-04-27T04:39:14.770Z,25.32
2019-04-27T04:41:46.779Z,26.02
2019-04-27T04:44:36.062Z,26.00
2019-04-27T04:47:43.568Z,25.80
2019-04-27T04:50:15.160Z,25.35
2019-04-27T04:52:45.866Z,26.15
2019-04-27T04:55:16.254Z,25.97
2019-04-27T04:57:49.179Z,25.32
2019-04-27T05:00:19.957Z,25.23
2019-04-27T05:02:50.410Z,25.62
2019-04-27T05:05:20.811Z,25.23
2019-04-27T05:07:51.187Z,25.90
2019-04-27T05:10:21.572Z,26.65
2019-04-27T05:12:51.952Z,26.57
2019-04-27T05:15:22.409Z,27.02
2019-04-27T05:17:52.776Z,26.65
2019-04-27T05:20:33.797Z,26.55
2019-04-27T05:23:04.176Z,26.33
2019-04-27T05:25:34.576Z,26.97
2019-04-27T05:28:04.953Z,26.23
2019-04-27T05:30:35.341Z,27.73
2019-04-27T05:33:05.705Z,26.35
2019-04-27T05:35:36.128Z,26.48
2019-04-27T05:38:07.595Z,26.42
2019-04-27T05:40:39.870Z,27.52
2019-04-27T05:43:12.053Z,26.30
2019-04-27T05:46:13.562Z,26.95
2019-04-27T05:48:43.929Z,26.85
2019-04-27T05:51:14.333Z,27.02
2019-04-27T05:53:44.788Z,27.00
2019-04-27T05:56:15.177Z,27.15
2019-04-27T05:58:45.559Z,28.17
2019-04-27T06:01:15.956Z,27.62
2019-04-27T06:03:46.321Z,28.60
2019-04-27T06:06:16.714Z,26.57
2019-04-27T06:08:47.093Z,28.45
2019-04-27T06:11:17.495Z,27.58
2019-04-27T06:13:49.208Z,29.40
2019-04-27T06:16:20.006Z,27.52
2019-04-27T06:18:50.383Z,26.68
2019-04-27T06:21:20.768Z,26.23
2019-04-27T06:23:51.149Z,25.75
2019-04-27T06:26:21.581Z,24.90
2019-04-27T06:28:51.961Z,26.02
2019-04-27T06:31:22.364Z,25.17
2019-04-27T06:33:52.732Z,25.45
2019-04-27T06:36:23.125Z,24.18
2019-04-27T06:38:53.505Z,23.90
2019-04-27T06:41:23.897Z,23.38
2019-04-27T06:43:54.265Z,23.52
2019-04-27T06:46:24.664Z,22.75
2019-04-27T06:48:55.071Z,23.22
2019-04-27T06:51:25.449Z,22.27
2019-04-27T06:53:56.821Z,23.05
2019-04-27T06:56:28.756Z,22.32
2019-04-27T06:59:00.335Z,22.90
2019-04-27T07:01:30.708Z,22.52
2019-04-27T07:04:01.101Z,22.60
2019-04-27T07:06:31.480Z,23.90
2019-04-27T07:09:01.880Z,23.45
2019-04-27T07:11:33.216Z,23.95
2019-04-27T07:14:04.632Z,24.37
2019-04-27T07:16:35.008Z,23.90
2019-04-27T07:19:06.381Z,24.52
2019-04-27T07:21:36.762Z,25.15
2019-04-27T07:24:08.497Z,25.45
2019-04-27T07:26:39.355Z,24.02
2019-04-27T07:29:09.860Z,24.40
2019-04-27T07:31:40.431Z,24.95
2019-04-27T07:34:10.855Z,25.72
2019-04-27T07:36:41.272Z,24.50
2019-04-27T07:39:11.731Z,23.67
2019-04-27T07:41:42.038Z,25.37
2019-04-27T07:44:16.770Z,25.12
2019-04-27T07:46:49.841Z,25.15
2019-04-27T07:49:20.245Z,24.47
2019-04-27T07:51:50.608Z,25.35
2019-04-27T07:54:21.030Z,24.82
2019-04-27T07:56:51.397Z,26.15
2019-04-27T07:59:21.793Z,26.02
2019-04-27T08:01:52.246Z,27.10
2019-04-27T08:04:24.082Z,26.45
2019-04-27T08:06:54.474Z,26.52
2019-04-27T08:09:26.706Z,27.05
2019-04-27T08:11:58.665Z,27.73
2019-04-27T08:14:29.154Z,28.15
2019-04-27T08:16:59.527Z,30.32
2019-04-27T08:19:29.986Z,29.00
2019-04-27T08:22:01.567Z,31.27
2019-04-27T08:24:33.194Z,30.62
2019-04-27T08:27:05.216Z,30.25
2019-04-27T08:29:52.532Z,31.27
2019-04-27T08:32:42.733Z,29.98
2019-04-27T08:35:13.377Z,30.43
2019-04-27T08:37:43.925Z,31.57
2019-04-27T08:40:15.237Z,31.37
2019-04-27T08:42:45.673Z,31.02
2019-04-27T08:45:19.180Z,31.35
2019-04-27T08:47:49.929Z,30.68
2019-04-27T08:50:20.493Z,30.65
2019-04-27T08:52:50.896Z,29.92
2019-04-27T08:55:21.294Z,30.88
2019-04-27T08:57:51.673Z,30.12
2019-04-27T09:00:22.512Z,27.93
2019-04-27T09:02:52.884Z,29.40
2019-04-27T09:05:26.115Z,30.48
2019-04-27T09:08:01.477Z,30.88
2019-04-27T09:10:45.492Z,29.05
2019-04-27T09:13:20.476Z,28.57
2019-04-27T09:15:52.524Z,27.73
2019-04-27T09:18:24.601Z,27.13
2019-04-27T09:20:56.636Z,28.50
2019-04-27T09:23:28.561Z,27.13
2019-04-27T09:25:59.554Z,27.02
2019-04-27T09:28:29.917Z,26.80
2019-04-27T09:31:00.317Z,27.17
2019-04-27T09:33:30.692Z,27.30
2019-04-27T09:36:01.088Z,26.57
2019-04-27T09:38:31.953Z,25.92
2019-04-27T09:41:02.357Z,24.50
2019-04-27T09:43:32.736Z,25.30
2019-04-27T09:46:03.133Z,24.77
2019-04-27T09:48:33.507Z,23.67
2019-04-27T09:51:03.914Z,22.40
2019-04-27T09:53:34.300Z,23.98
2019-04-27T09:56:06.376Z,22.25
2019-04-27T09:58:36.743Z,20.97
2019-04-27T10:01:07.141Z,21.57
2019-04-27T10:03:37.520Z,21.15
2019-04-27T10:06:07.927Z,21.73
2019-04-27T10:08:38.377Z,21.60
2019-04-27T10:11:08.777Z,22.80
2019-04-27T10:13:39.146Z,21.17
2019-04-27T10:16:09.552Z,21.35
2019-04-27T10:18:39.919Z,20.57
2019-04-27T10:21:10.341Z,19.37
2019-04-27T10:23:40.705Z,21.07
2019-04-27T10:26:11.114Z,18.37
2019-04-27T10:28:41.503Z,19.00
2019-04-27T10:31:11.908Z,18.27
2019-04-27T10:33:42.281Z,18.77
2019-04-27T10:36:12.690Z,17.82
2019-04-27T10:38:43.057Z,17.15
2019-04-27T10:41:13.420Z,17.52
2019-04-27T10:43:43.886Z,17.85
2019-04-27T10:46:15.643Z,17.67
2019-04-27T10:48:48.005Z,17.73
2019-04-27T10:51:18.400Z,17.67
2019-04-27T10:53:48.792Z,17.55
2019-04-27T10:56:20.344Z,16.05
2019-04-27T10:58:50.753Z,18.37
2019-04-27T11:01:21.113Z,15.95
2019-04-27T11:04:09.105Z,17.30
2019-04-27T11:06:41.114Z,16.90
2019-04-27T11:09:12.316Z,15.95
2019-04-27T11:11:42.848Z,15.25
2019-04-27T11:14:15.953Z,16.57
2019-04-27T11:16:46.525Z,15.28
2019-04-27T11:19:17.090Z,15.23
2019-04-27T11:21:47.483Z,13.72
2019-04-27T11:24:17.933Z,13.58
2019-04-27T11:26:48.334Z,14.53
2019-04-27T11:29:18.736Z,12.98
2019-04-27T11:31:49.118Z,10.40
2019-04-27T11:34:21.164Z,12.90
2019-04-27T11:36:58.848Z,11.22
2019-04-27T11:39:29.323Z,9.73
2019-04-27T11:41:59.690Z,8.30
2019-04-27T11:44:30.146Z,7.50
2019-04-27T11:47:00.550Z,8.88
2019-04-27T11:49:30.937Z,7.20
2019-04-27T11:52:01.302Z,6.75
2019-04-27T11:54:31.697Z,8.48
2019-04-27T11:57:02.056Z,7.40
2019-04-27T11:59:32.482Z,8.90
2019-04-27T12:02:02.847Z,6.67
2019-04-27T12:04:33.230Z,6.37
2019-04-27T12:07:03.767Z,6.58
2019-04-27T12:09:34.153Z,5.83
2019-04-27T12:12:13.588Z,6.22
2019-04-27T12:14:36.674Z,6.10
2019-04-27T12:17:07.035Z,6.08
2019-04-27T12:19:37.414Z,6.70
2019-04-27T12:22:07.783Z,5.50
2019-04-27T12:24:38.164Z,5.03
2019-04-27T12:27:19.355Z,6.97
2019-04-27T12:30:07.937Z,5.42
2019-04-27T12:32:38.330Z,5.53
2019-04-27T12:35:08.950Z,4.83
2019-04-27T12:37:39.319Z,5.37
2019-04-27T12:40:10.046Z,4.53
2019-04-27T12:42:40.419Z,4.72
2019-04-27T12:45:11.309Z,4.35
2019-04-27T12:47:42.634Z,5.58
2019-04-27T12:50:14.434Z,6.22
2019-04-27T12:52:46.434Z,6.20
2019-04-27T12:55:36.410Z,6.12
2019-04-27T12:58:11.224Z,5.80
2019-04-27T13:00:59.548Z,5.67
2019-04-27T13:03:29.914Z,4.60
2019-04-27T13:06:00.294Z,5.10
2019-04-27T13:08:30.654Z,6.53
2019-04-27T13:11:01.051Z,5.42
2019-04-27T13:13:31.432Z,5.60
2019-04-27T13:16:01.815Z,5.90
2019-04-27T13:18:32.179Z,5.75
2019-04-27T13:21:02.558Z,4.53
2019-04-27T13:23:33.992Z,4.15
2019-04-27T13:26:06.195Z,4.30
2019-04-27T13:28:36.448Z,4.47
2019-04-27T13:31:06.839Z,4.35
2019-04-27T13:33:37.197Z,5.08
2019-04-27T13:36:07.726Z,4.50
2019-04-27T13:38:38.135Z,4.35
2019-04-27T13:41:08.998Z,3.50
2019-04-27T13:43:39.658Z,4.67
2019-04-27T13:46:11.691Z,4.00
2019-04-27T13:49:01.993Z,4.15
2019-04-27T13:51:34.029Z,4.33
2019-04-27T13:54:14.524Z,4.00
2019-04-27T13:56:36.639Z,3.85
2019-04-27T13:59:07.686Z,4.47
2019-04-27T14:01:38.347Z,3.50
2019-04-27T14:04:08.694Z,5.40
2019-04-27T14:06:41.799Z,4.22
2019-04-27T14:09:12.762Z,4.22
2019-04-27T14:11:44.642Z,3.55
2019-04-27T14:14:14.999Z,4.28
2019-04-27T14:16:45.384Z,5.22
2019-04-27T14:19:15.738Z,5.03
2019-04-27T14:21:46.120Z,4.90
2019-04-27T14:24:27.478Z,5.55
2019-04-27T14:26:48.679Z,4.35
2019-04-27T14:29:19.016Z,4.17
2019-04-27T14:31:49.759Z,4.33
2019-04-27T14:34:20.238Z,4.22
2019-04-27T14:36:50.637Z,4.87
2019-04-27T14:39:21.263Z,4.37
2019-04-27T14:41:51.664Z,4.45
2019-04-27T14:44:22.031Z,4.20
2019-04-27T14:46:52.424Z,4.97
2019-04-27T14:49:22.790Z,4.15
2019-04-27T14:51:53.184Z,4.65
2019-04-27T14:54:23.565Z,4.53
2019-04-27T14:56:54.020Z,4.47
2019-04-27T14:59:24.378Z,3.90
2019-04-27T15:01:54.766Z,3.25
2019-04-27T15:04:27.022Z,3.05
2019-04-27T15:06:57.384Z,3.85
2019-04-27T15:09:27.741Z,3.50
2019-04-27T15:11:58.210Z,3.70
2019-04-27T15:14:28.579Z,2.90
2019-04-27T15:17:01.863Z,3.20
2019-04-27T15:19:37.791Z,4.22
2019-04-27T15:22:12.667Z,3.92
2019-04-27T15:24:47.100Z,3.33
2019-04-27T15:27:15.670Z,3.70
2019-04-27T15:29:46.031Z,3.77
2019-04-27T15:32:19.018Z,3.62
2019-04-27T15:35:09.582Z,3.45
2019-04-27T15:37:41.068Z,4.00
2019-04-27T15:40:22.312Z,3.70
2019-04-27T15:42:54.356Z,3.80
2019-04-27T15:45:24.739Z,3.70
2019-04-27T15:47:55.193Z,3.92
2019-04-27T15:50:28.488Z,3.75
2019-04-27T15:53:02.819Z,4.40
2019-04-27T15:55:36.383Z,4.37
2019-04-27T15:58:03.416Z,4.70
2019-04-27T16:00:33.776Z,4.58
2019-04-27T16:03:04.744Z,3.90
2019-04-27T16:05:36.079Z,4.28
2019-04-27T16:08:12.574Z,5.30
2019-04-27T16:10:40.292Z,4.00
2019-04-27T16:13:21.555Z,4.60
2019-04-27T16:15:54.083Z,4.60
2019-04-27T16:18:24.570Z,5.67
2019-04-27T16:20:56.077Z,5.45
2019-04-27T16:23:28.096Z,5.67
2019-04-27T16:26:00.464Z,5.30
2019-04-27T16:28:30.878Z,5.00
2019-04-27T16:31:01.238Z,4.35
2019-04-27T16:33:31.639Z,4.15
2019-04-27T16:36:07.095Z,4.03
2019-04-27T16:38:36.502Z,4.28
2019-04-27T16:41:08.146Z,4.00
2019-04-27T16:43:38.641Z,4.80
2019-04-27T16:46:09.012Z,3.90
2019-04-27T16:48:39.403Z,4.83
2019-04-27T16:51:10.724Z,4.42
2019-04-27T16:53:41.392Z,3.90
2019-04-27T16:56:15.203Z,4.65
2019-04-27T16:58:48.988Z,4.72
2019-04-27T17:01:18.416Z,4.37
2019-04-27T17:03:48.898Z,5.58
2019-04-27T17:06:21.352Z,5.08
2019-04-27T17:08:57.289Z,4.62
2019-04-27T17:11:25.031Z,5.22
2019-04-27T17:13:59.029Z,5.00
2019-04-27T17:16:34.157Z,5.33
2019-04-27T17:19:15.143Z,4.95
2019-04-27T17:21:46.461Z,5.22
2019-04-27T17:24:18.486Z,5.35
2019-04-27T17:26:48.846Z,7.10
2019-04-27T17:29:20.487Z,7.12
2019-04-27T17:31:55.210Z,6.83
2019-04-27T17:34:25.590Z,5.80
2019-04-27T17:36:56.803Z,5.92
2019-04-27T17:39:29.568Z,5.30
2019-04-27T17:41:59.241Z,5.22
2019-04-27T17:44:29.635Z,4.75
2019-04-27T17:47:00.079Z,5.45
2019-04-27T17:49:30.461Z,5.50
2019-04-27T17:52:00.819Z,4.72
2019-04-27T17:54:31.785Z,5.03
2019-04-27T17:57:05.245Z,4.78
2019-04-27T17:59:37.474Z,4.53
2019-04-27T18:02:08.921Z,5.00
2019-04-27T18:04:40.986Z,4.42
2019-04-27T18:07:12.190Z,4.95
2019-04-27T18:09:43.684Z,4.78
2019-04-27T18:12:15.840Z,5.00
2019-04-27T18:14:47.964Z,4.55
2019-04-27T18:17:19.958Z,4.85
2019-04-27T18:19:52.008Z,4.67
2019-04-27T18:22:22.391Z,4.60
2019-04-27T18:25:03.413Z,4.75
2019-04-27T18:27:44.723Z,5.22
2019-04-27T18:30:28.070Z,4.65
2019-04-27T18:33:01.984Z,5.10
2019-04-27T18:35:30.452Z,8.33
2019-04-27T18:38:03.764Z,5.25
2019-04-27T18:40:34.300Z,5.33
2019-04-27T18:43:06.359Z,4.03
2019-04-27T18:45:44.728Z,2.47
2019-04-27T18:48:14.850Z,2.25
2019-04-27T18:50:48.427Z,2.05
2019-04-27T18:53:24.614Z,1.42
2019-04-27T18:55:59.453Z,1.50
2019-04-27T18:58:28.742Z,1.50
2019-04-27T19:00:59.365Z,1.40
2019-04-27T19:03:31.646Z,1.50
2019-04-27T19:06:02.156Z,1.50
2019-04-27T19:08:33.906Z,1.30
2019-04-27T19:11:05.104Z,1.60
2019-04-27T19:13:38.162Z,1.57
2019-04-27T19:16:10.207Z,1.50
2019-04-27T19:18:41.231Z,1.25
2019-04-27T19:21:12.227Z,1.55
2019-04-27T19:23:44.374Z,1.70
2019-04-27T19:26:20.531Z,1.70
2019-04-27T19:28:55.389Z,1.57
2019-04-27T19:31:33.458Z,1.60
2019-04-27T19:34:03.876Z,1.50
2019-04-27T19:36:36.110Z,1.40
2019-04-27T19:39:10.558Z,1.45
2019-04-27T19:41:41.302Z,1.45
2019-04-27T19:44:11.655Z,3.45
2019-04-27T19:47:01.402Z,2.35
2019-04-27T19:49:31.943Z,1.40
2019-04-27T19:52:02.437Z,1.60
2019-04-27T19:54:33.144Z,1.77
2019-04-27T19:57:03.878Z,1.60
2019-04-27T19:59:38.101Z,1.60
2019-04-27T20:02:10.151Z,2.10
2019-04-27T20:04:41.692Z,2.15
2019-04-27T20:07:12.059Z,1.77
2019-04-27T20:09:47.864Z,1.85
2019-04-27T20:12:19.011Z,1.60
2019-04-27T20:14:58.430Z,1.50
2019-04-27T20:17:31.198Z,1.50
2019-04-27T20:20:03.718Z,1.70
2019-04-27T20:22:34.370Z,1.80
2019-04-27T20:25:06.259Z,1.82
2019-04-27T20:27:45.996Z,1.80
2019-04-27T20:30:11.229Z,2.00
2019-04-27T20:32:43.331Z,1.80
2019-04-27T20:35:13.705Z,1.90
2019-04-27T20:37:44.090Z,1.87
2019-04-27T20:40:14.991Z,1.87
2019-04-27T20:42:45.381Z,1.87
2019-04-27T20:45:15.802Z,2.02
2019-04-27T20:47:46.211Z,2.62
2019-04-27T20:50:16.567Z,2.40
2019-04-27T20:52:48.613Z,2.58
2019-04-27T20:55:18.972Z,2.30
2019-04-27T20:57:59.632Z,2.40
2019-04-27T21:00:22.468Z,2.70
2019-04-27T21:05:41.129Z,3.10
2019-04-27T21:08:13.095Z,3.30
2019-04-27T21:10:43.529Z,3.20
2019-04-27T21:13:13.919Z,3.05
2019-04-27T21:15:44.280Z,3.60
2019-04-27T21:18:14.666Z,4.22
2019-04-27T21:20:45.038Z,4.20
2019-04-27T21:23:15.420Z,3.92
2019-04-27T21:25:45.787Z,4.20
2019-04-27T21:28:18.947Z,3.60
2019-04-27T21:30:48.238Z,3.67
2019-04-27T21:33:18.615Z,4.20
2019-04-27T21:35:51.768Z,3.85
2019-04-27T21:38:22.158Z,3.85
2019-04-27T21:40:52.521Z,3.80
2019-04-27T21:43:22.910Z,4.00
2019-04-27T21:45:53.278Z,4.28
2019-04-27T21:48:23.663Z,5.30
2019-04-27T21:50:54.089Z,4.50
2019-04-27T21:53:26.099Z,4.87
2019-04-27T21:56:01.460Z,4.70
2019-04-27T21:58:33.479Z,4.58
2019-04-27T22:01:21.646Z,4.85
2019-04-27T22:03:52.722Z,4.10
2019-04-27T22:06:24.287Z,3.90
2019-04-27T22:08:54.675Z,4.15
2019-04-27T22:11:25.036Z,3.52
2019-04-27T22:13:55.558Z,3.50
2019-04-27T22:16:25.925Z,3.22
2019-04-27T22:18:56.319Z,3.72
2019-04-27T22:21:26.686Z,3.60
2019-04-27T22:24:01.369Z,3.60
2019-04-27T22:26:31.725Z,3.40
2019-04-27T22:29:02.114Z,3.42
2019-04-27T22:31:32.482Z,3.40
2019-04-27T22:34:02.876Z,3.30
2019-04-27T22:36:33.235Z,3.30
2019-04-27T22:39:05.437Z,3.17
2019-04-27T22:41:47.796Z,3.40
2019-04-27T22:44:21.545Z,3.77
2019-04-27T22:46:53.954Z,3.22
2019-04-27T22:49:24.336Z,3.37
2019-04-27T22:51:54.712Z,3.47
2019-04-27T22:54:25.111Z,3.27
2019-04-27T22:56:57.126Z,3.20
2019-04-27T22:59:29.148Z,3.15
2019-04-27T23:02:17.589Z,3.00
2019-04-27T23:07:34.118Z,3.33
2019-04-27T23:10:07.309Z,3.45
2019-04-27T23:12:37.675Z,3.42
2019-04-27T23:15:09.931Z,3.47
2019-04-27T23:17:54.286Z,3.02
2019-04-27T23:20:24.975Z,3.25
2019-04-27T23:22:55.348Z,3.42
2019-04-27T23:25:25.730Z,3.22
2019-04-27T23:27:56.094Z,3.60
2019-04-27T23:33:04.574Z,3.27
2019-04-27T23:35:34.965Z,4.00
2019-04-27T23:38:15.616Z,4.30
2019-04-27T23:40:37.423Z,4.25
2019-04-27T23:43:07.794Z,4.42
2019-04-27T23:45:38.179Z,4.78
2019-04-27T23:48:08.546Z,4.45
2019-04-27T23:50:40.549Z,5.22
2019-04-27T23:53:15.311Z,5.60
2019-04-27T23:55:45.672Z,5.25
2019-04-27T23:58:16.053Z,5.80
